Macon, North Carolina
Current Conditions -  °F | °C
As of 7:36 AM on Monday 24 Nov 2014 (Local Time) from KAVC Reporting Station
Scattered Clouds Scattered Clouds  
Wind Chill: 60°   Ceiling: Unl
Heat Index: 60°   Visibility: 10mi
Dew Point: 58°   Wind: 12mph
Humidity: 94%   Direction: 190°S
Pressure: 29.83"   Gusts: 18mph
Location:  36.44°N, 78.08°W
Report Text: KAVC 241236Z AUTO 19010G16KT 10SM SCT010 SCT014 SCT028 16/15 A2983 RMK AO2 T01560147
Loading
Personal Weather Stations






























Interactive Weather Map New forecast layout! Learn more

10-Day Weather Forecast

Advertisements
Track Severe Weather on mobile